Time;durP1;ratioP1;P1;durP2;ratioP2;P2;SDS_P1;SDS_P2;PMS_P1;PMS_P2;Temp;Humidity;BMP_temperature;BMP_pressure;BME280_temperature;BME280_humidity;BME280_pressure;Samples;Min_cycle;Max_cycle;Signal;HPM_P1;HPM_P2
2023/01/26 00:00:23;;;;;;;1.25;0.75;;;;;;;-145.82;100.00;61645.16;5054833;28;20621;-76
2023/01/26 00:03:08;;;;;;;1.73;1.10;;;;;;;-145.82;100.00;61645.16;5053042;28;20576;-74
2023/01/26 00:05:54;;;;;;;1.13;0.65;;;;;;;-145.82;100.00;61645.16;5052106;28;20955;-76
2023/01/26 00:08:43;;;;;;;0.32;0.28;;;;;;;-145.82;100.00;61645.16;5053120;28;20834;-76
2023/01/26 00:11:29;;;;;;;0.80;0.55;;;;;;;-145.82;100.00;61645.16;5052310;28;20029;-76
2023/01/26 00:14:15;;;;;;;0.32;0.30;;;;;;;-145.82;100.00;61645.16;5054837;28;20267;-75
2023/01/26 00:17:01;;;;;;;0.20;0.20;;;;;;;-145.82;100.00;61645.16;5055307;28;20420;-76
2023/01/26 00:19:49;;;;;;;0.40;0.30;;;;;;;-145.82;100.00;61645.16;5054286;28;20418;-76
2023/01/26 00:22:35;;;;;;;0.68;0.43;;;;;;;-145.82;100.00;61645.16;5050835;28;20048;-76
2023/01/26 00:25:21;;;;;;;0.80;0.40;;;;;;;-145.82;100.00;61645.16;5055594;28;20040;-77
2023/01/26 00:28:07;;;;;;;0.30;0.30;;;;;;;-145.82;100.00;61645.16;5053166;28;20092;-76
2023/01/26 00:30:53;;;;;;;1.17;0.70;;;;;;;-145.82;100.00;61645.16;5054343;28;20102;-76
2023/01/26 00:33:42;;;;;;;1.20;0.63;;;;;;;-145.82;100.00;61645.16;5063754;28;21837;-75
2023/01/26 00:36:29;;;;;;;0.90;0.52;;;;;;;-145.82;100.00;61645.16;5065564;28;20536;-77
2023/01/26 00:39:15;;;;;;;1.52;0.93;;;;;;;-145.82;100.00;61645.16;5051631;28;20309;-76
2023/01/26 00:42:08;;;;;;;1.55;0.88;;;;;;;-145.82;100.00;61645.16;5052776;28;20079;-77
2023/01/26 00:44:54;;;;;;;1.45;0.90;;;;;;;-145.82;100.00;61645.16;5053808;28;20059;-77
2023/01/26 00:47:40;;;;;;;1.02;0.52;;;;;;;-145.82;100.00;61645.16;5049540;28;20043;-77
2023/01/26 00:50:26;;;;;;;0.90;0.50;;;;;;;-145.82;100.00;61645.16;5050148;28;20554;-76
2023/01/26 00:53:12;;;;;;;0.82;0.50;;;;;;;-145.82;100.00;61645.16;5052607;28;20089;-77
2023/01/26 00:55:58;;;;;;;1.48;0.75;;;;;;;-145.82;100.00;61645.16;5063305;28;20488;-77
2023/01/26 00:58:44;;;;;;;0.38;0.32;;;;;;;-145.82;100.00;61645.16;5051776;28;20354;-77
2023/01/26 01:01:30;;;;;;;0.75;0.50;;;;;;;-145.82;100.00;61645.16;5051607;28;20237;-76
2023/01/26 01:04:16;;;;;;;0.98;0.60;;;;;;;-145.82;100.00;61645.16;5054993;28;20495;-77
2023/01/26 01:07:02;;;;;;;0.50;0.40;;;;;;;-145.82;100.00;61645.16;5053730;28;20459;-77
2023/01/26 01:09:48;;;;;;;1.55;0.90;;;;;;;-145.82;100.00;61645.16;5064985;28;20044;-76
2023/01/26 01:12:34;;;;;;;0.52;0.35;;;;;;;-145.82;100.00;61645.16;5063647;28;20450;-75
2023/01/26 01:15:20;;;;;;;0.88;0.47;;;;;;;-145.82;100.00;61645.16;5040952;28;20738;-76
2023/01/26 01:18:06;;;;;;;0.52;0.38;;;;;;;-145.82;100.00;61645.16;5043898;28;20054;-76
2023/01/26 01:20:52;;;;;;;0.73;0.50;;;;;;;-145.82;100.00;61645.16;5040060;28;20293;-76
2023/01/26 01:23:39;;;;;;;0.57;0.43;;;;;;;-145.82;100.00;61645.16;5066325;28;20048;-77
2023/01/26 01:26:26;;;;;;;1.20;0.60;;;;;;;-145.82;100.00;61645.16;5038716;28;20036;-74
2023/01/26 01:29:12;;;;;;;0.70;0.40;;;;;;;-145.82;100.00;61645.16;5051786;28;20356;-76
2023/01/26 01:31:58;;;;;;;0.25;0.25;;;;;;;-145.82;100.00;61645.16;5049414;28;20597;-76
2023/01/26 01:34:47;;;;;;;0.90;0.55;;;;;;;-145.82;100.00;61645.16;5050534;28;20396;-76
2023/01/26 01:37:35;;;;;;;0.28;0.28;;;;;;;-145.82;100.00;61645.16;5050242;28;20052;-77
2023/01/26 01:40:21;;;;;;;0.25;0.25;;;;;;;-145.82;100.00;61645.16;5052813;28;20051;-76
2023/01/26 01:43:11;;;;;;;0.93;0.52;;;;;;;-145.82;100.00;61645.16;5043855;28;20872;-75
2023/01/26 01:46:00;;;;;;;0.93;0.50;;;;;;;-145.82;100.00;61645.16;5049988;28;20578;-77
2023/01/26 01:48:49;;;;;;;0.73;0.43;;;;;;;-145.82;100.00;61645.16;5050829;28;20089;-77
2023/01/26 01:51:48;;;;;;;0.73;0.50;;;;;;;-145.82;100.00;61645.16;5050618;28;20135;-76
2023/01/26 01:54:39;;;;;;;0.60;0.40;;;;;;;-145.82;100.00;61645.16;5048988;28;20075;-75
2023/01/26 01:57:43;;;;;;;0.38;0.30;;;;;;;-145.82;100.00;61645.16;5047816;28;20392;-77
2023/01/26 02:00:29;;;;;;;0.20;0.20;;;;;;;-145.82;100.00;61645.16;5050124;28;20043;-76
2023/01/26 02:03:20;;;;;;;0.35;0.30;;;;;;;-145.82;100.00;61645.16;5049069;28;20138;-76
2023/01/26 02:06:12;;;;;;;0.32;0.30;;;;;;;-145.82;100.00;61645.16;5048853;28;20047;-76
2023/01/26 02:08:58;;;;;;;0.20;0.20;;;;;;;-145.82;100.00;61645.16;5061855;28;20575;-76
2023/01/26 02:11:45;;;;;;;0.20;0.20;;;;;;;-145.82;100.00;61645.16;5036667;28;20466;-77
2023/01/26 02:14:32;;;;;;;0.30;0.30;;;;;;;-145.82;100.00;61645.16;5062165;28;20043;-76
2023/01/26 02:17:18;;;;;;;0.20;0.20;;;;;;;-145.82;100.00;61645.16;5051456;28;20323;-76
2023/01/26 02:20:07;;;;;;;0.20;0.20;;;;;;;-145.82;100.00;61645.16;5055251;28;20609;-76
2023/01/26 02:23:16;;;;;;;0.30;0.30;;;;;;;-145.82;100.00;61645.16;5055437;28;20056;-77
2023/01/26 02:26:08;;;;;;;0.30;0.25;;;;;;;-145.82;100.00;61645.16;5069236;28;20386;-77
2023/01/26 02:28:55;;;;;;;0.20;0.20;;;;;;;-145.82;100.00;61645.16;5054939;28;20141;-76
2023/01/26 02:31:41;;;;;;;0.20;0.20;;;;;;;-145.82;100.00;61645.16;5058122;28;20044;-75
2023/01/26 02:34:27;;;;;;;0.30;0.30;;;;;;;-145.82;100.00;61645.16;5058200;28;20047;-76
2023/01/26 02:37:14;;;;;;;0.30;0.30;;;;;;;-145.82;100.00;61645.16;5058445;28;20146;-75
2023/01/26 02:40:13;;;;;;;0.32;0.30;;;;;;;-145.82;100.00;61645.16;5042807;28;20071;-77
2023/01/26 02:42:59;;;;;;;0.30;0.30;;;;;;;-145.82;100.00;61645.16;5044452;28;20819;-77
2023/01/26 02:45:45;;;;;;;0.30;0.30;;;;;;;-145.82;100.00;61645.16;5057319;28;20051;-77
2023/01/26 02:51:36;;;;;;;0.30;0.28;;;;;;;-145.82;100.00;61645.16;5046112;28;20142;-75
2023/01/26 02:57:41;;;;;;;0.20;0.20;;;;;;;-145.82;100.00;61645.16;5029286;28;20722;-75
2023/01/26 03:00:40;;;;;;;0.20;0.20;;;;;;;-145.82;100.00;61645.16;5044857;28;20275;-76
2023/01/26 03:03:50;;;;;;;0.30;0.30;;;;;;;-145.82;100.00;61645.16;5069172;28;20370;-75
2023/01/26 03:06:35;;;;;;;0.20;0.20;;;;;;;-145.82;100.00;61645.16;5059871;28;20047;-76
2023/01/26 03:09:21;;;;;;;0.30;0.30;;;;;;;-145.82;100.00;61645.16;5057934;28;20039;-75
2023/01/26 03:12:08;;;;;;;0.22;0.22;;;;;;;-145.82;100.00;61645.16;5056684;28;20313;-76
2023/01/26 03:15:41;;;;;;;0.32;0.30;;;;;;;-145.82;100.00;61645.16;5056329;28;20219;-77
2023/01/26 03:27:25;;;;;;;0.20;0.20;;;;;;;-145.82;100.00;61645.16;5068347;28;20196;-75
2023/01/26 03:27:27;;;;;;;0.20;0.20;;;;;;;-145.82;100.00;61645.16;5070910;28;20044;-75
2023/01/26 03:30:17;;;;;;;0.20;0.20;;;;;;;-145.82;100.00;61645.16;5072308;27;20340;-76
2023/01/26 03:33:05;;;;;;;0.20;0.20;;;;;;;-145.82;100.00;61645.16;5063632;28;20040;-75
2023/01/26 03:35:53;;;;;;;0.20;0.20;;;;;;;-145.82;100.00;61645.16;5067571;28;20568;-76
2023/01/26 03:38:41;;;;;;;0.20;0.20;;;;;;;-145.82;100.00;61645.16;5065135;28;20037;-74
2023/01/26 03:56:50;;;;;;;0.20;0.20;;;;;;;-145.82;100.00;61645.16;5049651;28;20037;-76
2023/01/26 03:59:37;;;;;;;0.20;0.20;;;;;;;-145.82;100.00;61645.16;5040425;28;20671;-76
2023/01/26 04:08:35;;;;;;;0.20;0.20;;;;;;;-145.82;100.00;61645.16;5043059;28;20128;-75
2023/01/26 04:11:22;;;;;;;0.47;0.32;;;;;;;-145.82;100.00;61645.16;5041054;28;20078;-76
2023/01/26 04:23:25;;;;;;;0.30;0.30;;;;;;;-145.82;100.00;61645.16;5053599;28;20052;-75
2023/01/26 04:26:11;;;;;;;0.10;0.10;;;;;;;-145.82;100.00;61645.16;5045976;28;20127;-75
2023/01/26 04:28:57;;;;;;;0.20;0.20;;;;;;;-145.82;100.00;61645.16;5043994;28;20063;-75
2023/01/26 04:31:43;;;;;;;0.20;0.20;;;;;;;-145.82;100.00;61645.16;5064354;28;20344;-75
2023/01/26 04:34:29;;;;;;;0.20;0.20;;;;;;;-145.82;100.00;61645.16;5042227;28;20433;-74
2023/01/26 04:37:16;;;;;;;0.28;0.28;;;;;;;-145.82;100.00;61645.16;5046522;28;20416;-74
2023/01/26 04:40:07;;;;;;;0.15;0.15;;;;;;;-145.82;100.00;61645.16;5041701;28;20039;-74
2023/01/26 04:42:54;;;;;;;0.52;0.40;;;;;;;-145.82;100.00;61645.16;5064237;28;20083;-75
2023/01/26 04:45:40;;;;;;;0.20;0.20;;;;;;;-145.82;100.00;61645.16;5051648;28;20055;-76
2023/01/26 04:48:27;;;;;;;0.20;0.20;;;;;;;-145.82;100.00;61645.16;5041318;28;20150;-75
2023/01/26 04:51:16;;;;;;;0.30;0.30;;;;;;;-145.82;100.00;61645.16;5051822;28;20051;-75
2023/01/26 04:54:02;;;;;;;0.20;0.20;;;;;;;-145.82;100.00;61645.16;5064480;28;20047;-76
2023/01/26 04:56:50;;;;;;;0.20;0.20;;;;;;;-145.82;100.00;61645.16;5035602;28;20574;-75
2023/01/26 04:59:36;;;;;;;0.20;0.20;;;;;;;-145.82;100.00;61645.16;5067111;28;20061;-75
2023/01/26 05:02:22;;;;;;;0.22;0.20;;;;;;;-145.82;100.00;61645.16;5052672;28;20088;-76
2023/01/26 05:05:09;;;;;;;0.25;0.25;;;;;;;-145.82;100.00;61645.16;5037189;28;20036;-75
2023/01/26 05:07:55;;;;;;;0.20;0.20;;;;;;;-145.82;100.00;61645.16;5051341;28;20163;-76
2023/01/26 05:10:44;;;;;;;0.30;0.30;;;;;;;-145.82;100.00;61645.16;5056006;28;20064;-74
2023/01/26 05:13:45;;;;;;;0.60;0.40;;;;;;;-145.82;100.00;61645.16;5053582;28;20040;-75
2023/01/26 05:16:35;;;;;;;0.20;0.20;;;;;;;-145.82;100.00;61645.16;5045535;28;20129;-75
2023/01/26 05:19:26;;;;;;;0.28;0.28;;;;;;;-145.82;100.00;61645.16;5052968;28;20183;-74
2023/01/26 05:22:38;;;;;;;;;;;;;;;-145.82;100.00;61645.16;5043254;28;20055;-75
2023/01/26 05:25:43;;;;;;;0.20;0.20;;;;;;;-145.82;100.00;61645.16;5051898;28;19999;-75
2023/01/26 05:28:33;;;;;;;0.20;0.20;;;;;;;-145.82;100.00;61645.16;5043694;28;20932;-74
2023/01/26 05:31:19;;;;;;;0.20;0.20;;;;;;;-145.82;100.00;61645.16;5040586;28;20299;-75
2023/01/26 05:34:04;;;;;;;0.40;0.32;;;;;;;-145.82;100.00;61645.16;5063508;28;20045;-74
2023/01/26 05:36:53;;;;;;;0.20;0.20;;;;;;;-145.82;100.00;61645.16;5064104;28;20529;-76
2023/01/26 05:39:39;;;;;;;0.20;0.20;;;;;;;-145.82;100.00;61645.16;5066091;28;20135;-74
2023/01/26 05:42:26;;;;;;;0.20;0.20;;;;;;;-145.82;100.00;61645.16;5049225;28;20040;-75
2023/01/26 05:45:26;;;;;;;0.22;0.22;;;;;;;-145.82;100.00;61645.16;5066337;28;20094;-76
2023/01/26 05:48:15;;;;;;;0.20;0.20;;;;;;;-145.82;100.00;61645.16;5053225;28;20564;-75
2023/01/26 05:51:03;;;;;;;0.20;0.20;;;;;;;-145.82;100.00;61645.16;5066991;28;20105;-76
2023/01/26 05:53:49;;;;;;;0.20;0.20;;;;;;;-145.82;100.00;61645.16;5040709;28;20433;-76
2023/01/26 05:56:35;;;;;;;0.20;0.20;;;;;;;-145.82;100.00;61645.16;5042798;28;20449;-76
2023/01/26 05:59:23;;;;;;;0.20;0.20;;;;;;;-145.82;100.00;61645.16;5044881;28;20044;-76
2023/01/26 06:02:12;;;;;;;0.20;0.20;;;;;;;-145.82;100.00;61645.16;5061872;28;20348;-75
2023/01/26 06:05:01;;;;;;;0.20;0.20;;;;;;;-145.82;100.00;61645.16;5021305;28;20591;-76
2023/01/26 06:07:47;;;;;;;0.20;0.20;;;;;;;-145.82;100.00;61645.16;5020121;28;20047;-76
2023/01/26 06:10:37;;;;;;;0.20;0.20;;;;;;;-145.82;100.00;61645.16;5023247;28;20048;-76
2023/01/26 06:13:43;;;;;;;0.20;0.20;;;;;;;-145.82;100.00;61645.16;5032311;28;20044;-75
2023/01/26 06:16:51;;;;;;;0.20;0.20;;;;;;;-145.82;100.00;61645.16;5048002;28;20044;-76
2023/01/26 06:19:37;;;;;;;0.20;0.20;;;;;;;-145.82;100.00;61645.16;5033548;28;20052;-75
2023/01/26 06:22:24;;;;;;;0.20;0.20;;;;;;;-145.82;100.00;61645.16;5022023;28;20132;-76
2023/01/26 06:25:10;;;;;;;0.20;0.20;;;;;;;-145.82;100.00;61645.16;5045887;28;20254;-76
2023/01/26 06:27:57;;;;;;;0.20;0.20;;;;;;;-145.82;100.00;61645.16;5021214;28;20041;-75
2023/01/26 06:30:48;;;;;;;0.20;0.20;;;;;;;-145.82;100.00;61645.16;5035858;28;20134;-79
2023/01/26 06:33:35;;;;;;;0.20;0.20;;;;;;;-145.82;100.00;61645.16;5018486;28;20140;-73
2023/01/26 06:36:22;;;;;;;0.30;0.30;;;;;;;-145.82;100.00;61645.16;5047056;28;20049;-75
2023/01/26 06:39:11;;;;;;;0.20;0.20;;;;;;;-145.82;100.00;61645.16;5019299;28;20049;-74
2023/01/26 06:42:00;;;;;;;0.25;0.25;;;;;;;-145.82;100.00;61645.16;5021022;28;20682;-76
2023/01/26 06:44:46;;;;;;;0.20;0.20;;;;;;;-145.82;100.00;61645.16;5020743;28;20164;-73
2023/01/26 06:47:32;;;;;;;0.20;0.20;;;;;;;-145.82;100.00;61645.16;5046263;28;20473;-74
2023/01/26 06:50:24;;;;;;;0.20;0.20;;;;;;;-145.82;100.00;61645.16;5021380;28;20326;-75
2023/01/26 06:53:37;;;;;;;0.20;0.20;;;;;;;-145.82;100.00;61645.16;5030912;28;20130;-74
2023/01/26 06:56:41;;;;;;;0.20;0.20;;;;;;;-145.82;100.00;61645.16;5034265;28;20041;-75
2023/01/26 07:00:07;;;;;;;0.20;0.20;;;;;;;-145.82;100.00;61645.16;5031232;28;20040;-75
2023/01/26 07:03:11;;;;;;;0.20;0.20;;;;;;;-145.82;100.00;61645.16;5031464;28;20041;-75
2023/01/26 07:05:57;;;;;;;0.20;0.20;;;;;;;-145.82;100.00;61645.16;5036342;28;20045;-76
2023/01/26 07:08:44;;;;;;;0.20;0.20;;;;;;;-145.82;100.00;61645.16;5037213;28;20328;-75
2023/01/26 07:11:31;;;;;;;0.20;0.20;;;;;;;-145.82;100.00;61645.16;5035918;28;20075;-74
2023/01/26 07:14:17;;;;;;;0.20;0.20;;;;;;;-145.82;100.00;61645.16;5036781;28;20041;-76
2023/01/26 07:17:03;;;;;;;0.20;0.20;;;;;;;-145.82;100.00;61645.16;5035142;28;20567;-77
2023/01/26 07:19:48;;;;;;;0.20;0.20;;;;;;;-145.82;100.00;61645.16;5036626;28;20563;-75
2023/01/26 07:22:34;;;;;;;0.13;0.13;;;;;;;-145.82;100.00;61645.16;5035835;28;20063;-75
2023/01/26 07:25:20;;;;;;;0.30;0.30;;;;;;;-145.82;100.00;61645.16;5038681;28;20982;-76
2023/01/26 07:28:08;;;;;;;0.20;0.20;;;;;;;-145.82;100.00;61645.16;5035245;28;20055;-75
2023/01/26 07:30:58;;;;;;;0.17;0.17;;;;;;;-145.82;100.00;61645.16;5038105;28;20539;-77
2023/01/26 07:33:44;;;;;;;0.20;0.20;;;;;;;-145.82;100.00;61645.16;5034415;28;20037;-75
2023/01/26 07:36:30;;;;;;;0.20;0.20;;;;;;;-145.82;100.00;61645.16;5025439;28;20509;-75
2023/01/26 07:39:15;;;;;;;0.17;0.17;;;;;;;-145.82;100.00;61645.16;5033506;28;20436;-75
2023/01/26 07:42:01;;;;;;;0.28;0.28;;;;;;;-145.82;100.00;61645.16;5046539;28;20493;-76
2023/01/26 07:45:08;;;;;;;0.20;0.20;;;;;;;-145.82;100.00;61645.16;5022760;28;20493;-75
2023/01/26 07:47:54;;;;;;;0.30;0.30;;;;;;;-145.82;100.00;61645.16;5009312;28;20600;-75
2023/01/26 07:50:40;;;;;;;0.20;0.20;;;;;;;-145.82;100.00;61645.16;5035100;28;20041;-75
2023/01/26 07:53:28;;;;;;;0.30;0.30;;;;;;;-145.82;100.00;61645.16;5022652;28;20068;-75
2023/01/26 07:56:15;;;;;;;0.20;0.20;;;;;;;-145.82;100.00;61645.16;5025086;28;20044;-75
2023/01/26 07:59:01;;;;;;;0.20;0.20;;;;;;;-145.82;100.00;61645.16;5035377;28;20458;-75
2023/01/26 08:01:51;;;;;;;0.20;0.20;;;;;;;-145.82;100.00;61645.16;5034701;28;20266;-76
2023/01/26 08:04:37;;;;;;;0.20;0.20;;;;;;;-145.82;100.00;61645.16;5035297;28;20065;-76
2023/01/26 08:07:23;;;;;;;0.20;0.20;;;;;;;-145.82;100.00;61645.16;5035080;28;20037;-76
2023/01/26 08:10:09;;;;;;;0.25;0.25;;;;;;;-145.82;100.00;61645.16;5035719;28;20048;-76
2023/01/26 08:12:58;;;;;;;0.20;0.20;;;;;;;-145.82;100.00;61645.16;5033430;28;20048;-77
2023/01/26 08:15:44;;;;;;;0.20;0.20;;;;;;;-145.82;100.00;61645.16;5021853;28;20075;-76
2023/01/26 08:18:30;;;;;;;0.20;0.20;;;;;;;-145.82;100.00;61645.16;5047194;28;20084;-76
2023/01/26 08:21:17;;;;;;;0.20;0.20;;;;;;;-145.82;100.00;61645.16;5036767;28;20513;-76
2023/01/26 08:24:03;;;;;;;0.20;0.20;;;;;;;-145.82;100.00;61645.16;5045664;28;20557;-77
2023/01/26 08:26:49;;;;;;;0.15;0.15;;;;;;;-145.82;100.00;61645.16;5037297;28;20421;-75
2023/01/26 08:29:35;;;;;;;0.30;0.30;;;;;;;-145.82;100.00;61645.16;5035899;28;20076;-76
2023/01/26 08:32:21;;;;;;;0.20;0.20;;;;;;;-145.82;100.00;61645.16;5034104;28;20056;-75
2023/01/26 08:35:27;;;;;;;0.28;0.28;;;;;;;-145.82;100.00;61645.16;5035609;28;20330;-76
2023/01/26 08:38:13;;;;;;;0.10;0.10;;;;;;;-145.82;100.00;61645.16;5033291;28;20041;-76
2023/01/26 08:41:00;;;;;;;0.20;0.20;;;;;;;-145.82;100.00;61645.16;5035085;28;20271;-75
2023/01/26 08:43:47;;;;;;;0.20;0.20;;;;;;;-145.82;100.00;61645.16;5025149;28;20475;-75
2023/01/26 08:46:33;;;;;;;0.20;0.20;;;;;;;-145.82;100.00;61645.16;5035574;28;20616;-76
2023/01/26 08:49:19;;;;;;;0.20;0.20;;;;;;;-145.82;100.00;61645.16;5035302;28;20040;-76
2023/01/26 08:52:05;;;;;;;0.20;0.20;;;;;;;-145.82;100.00;61645.16;5033259;28;20052;-76
2023/01/26 08:54:51;;;;;;;0.20;0.20;;;;;;;-145.82;100.00;61645.16;5035569;28;20049;-76
2023/01/26 08:57:36;;;;;;;0.30;0.30;;;;;;;-145.82;100.00;61645.16;5020069;28;20049;-75
2023/01/26 09:00:23;;;;;;;0.30;0.30;;;;;;;-145.82;100.00;61645.16;5036069;28;20276;-76
2023/01/26 09:03:09;;;;;;;0.20;0.20;;;;;;;-145.82;100.00;61645.16;5044200;28;20394;-76
2023/01/26 09:05:59;;;;;;;0.20;0.20;;;;;;;-145.82;100.00;61645.16;5056004;28;20587;-76
2023/01/26 09:08:44;;;;;;;0.20;0.20;;;;;;;-145.82;100.00;61645.16;5051644;28;20237;-75
2023/01/26 09:11:30;;;;;;;0.20;0.20;;;;;;;-145.82;100.00;61645.16;5055644;28;20072;-74
2023/01/26 09:14:16;;;;;;;0.30;0.30;;;;;;;-145.82;100.00;61645.16;5054524;28;20722;-75
2023/01/26 09:17:02;;;;;;;0.17;0.17;;;;;;;-145.82;100.00;61645.16;5054372;28;20056;-75
2023/01/26 09:19:48;;;;;;;0.20;0.20;;;;;;;-145.82;100.00;61645.16;5052100;28;20384;-77
2023/01/26 09:22:34;;;;;;;0.20;0.20;;;;;;;-145.82;100.00;61645.16;5052991;28;20079;-76
2023/01/26 09:25:20;;;;;;;0.20;0.20;;;;;;;-145.82;100.00;61645.16;5052737;28;20416;-76
2023/01/26 09:28:06;;;;;;;0.20;0.20;;;;;;;-145.82;100.00;61645.16;5053556;28;20044;-76
2023/01/26 09:30:52;;;;;;;0.30;0.30;;;;;;;-145.82;100.00;61645.16;5052792;28;20048;-76
2023/01/26 09:33:38;;;;;;;0.20;0.20;;;;;;;-145.82;100.00;61645.16;5053194;28;20051;-76
2023/01/26 09:36:25;;;;;;;0.30;0.30;;;;;;;-145.82;100.00;61645.16;5041275;28;20248;-77
2023/01/26 09:39:10;;;;;;;0.20;0.20;;;;;;;-145.82;100.00;61645.16;5052431;28;20040;-75
2023/01/26 09:42:34;;;;;;;0.20;0.20;;;;;;;-145.82;100.00;61645.16;5052167;28;21116;-76
2023/01/26 09:45:26;;;;;;;0.30;0.30;;;;;;;-145.82;100.00;61645.16;5052890;28;20041;-76
2023/01/26 09:48:26;;;;;;;0.22;0.22;;;;;;;-145.82;100.00;61645.16;5052537;28;20259;-76
2023/01/26 09:51:25;;;;;;;0.20;0.20;;;;;;;-145.82;100.00;61645.16;5051967;28;20580;-75
2023/01/26 09:54:29;;;;;;;0.35;0.30;;;;;;;-145.82;100.00;61645.16;5052939;28;20044;-75
2023/01/26 09:57:23;;;;;;;0.40;0.30;;;;;;;-145.82;100.00;61645.16;5050129;28;20146;-75
2023/01/26 10:00:21;;;;;;;0.30;0.30;;;;;;;-145.82;100.00;61645.16;5052171;28;20091;-76
2023/01/26 10:03:16;;;;;;;0.20;0.20;;;;;;;-145.82;100.00;61645.16;5039163;28;20283;-74
2023/01/26 10:06:20;;;;;;;0.30;0.30;;;;;;;-145.82;100.00;61645.16;5051569;28;20262;-76
2023/01/26 10:09:32;;;;;;;0.20;0.20;;;;;;;-145.82;100.00;61645.16;5052288;28;20055;-76
2023/01/26 10:12:20;;;;;;;0.20;0.20;;;;;;;-145.82;100.00;61645.16;5053110;28;20447;-76
2023/01/26 10:15:23;;;;;;;0.32;0.30;;;;;;;-145.82;100.00;61645.16;5052098;28;20072;-76
2023/01/26 10:18:18;;;;;;;0.22;0.22;;;;;;;-145.82;100.00;61645.16;5050933;28;20116;-76
2023/01/26 10:21:08;;;;;;;0.20;0.20;;;;;;;-145.82;100.00;61645.16;5052262;28;20586;-76
2023/01/26 10:23:56;;;;;;;0.30;0.30;;;;;;;-145.82;100.00;61645.16;5051506;28;20413;-76
2023/01/26 10:26:42;;;;;;;0.38;0.30;;;;;;;-145.82;100.00;61645.16;5043091;28;20401;-76
2023/01/26 10:29:28;;;;;;;0.40;0.30;;;;;;;-145.82;100.00;61645.16;5052939;28;20412;-75
2023/01/26 10:32:16;;;;;;;0.30;0.30;;;;;;;-145.82;100.00;61645.16;5052022;28;20128;-76
2023/01/26 10:35:02;;;;;;;0.32;0.30;;;;;;;-145.82;100.00;61645.16;5066052;28;20048;-76
2023/01/26 10:37:51;;;;;;;0.50;0.30;;;;;;;-145.82;100.00;61645.16;5051146;28;20910;-75
2023/01/26 10:40:44;;;;;;;0.63;0.40;;;;;;;-145.82;100.00;61645.16;5053397;28;20032;-76
2023/01/26 10:43:52;;;;;;;0.40;0.35;;;;;;;-145.82;100.00;61645.16;5055848;28;20649;-75
2023/01/26 10:46:40;;;;;;;0.30;0.30;;;;;;;-145.82;100.00;61645.16;5042600;28;20039;-76
2023/01/26 10:49:27;;;;;;;0.60;0.40;;;;;;;-145.82;100.00;61645.16;5055106;28;20044;-75
2023/01/26 10:52:26;;;;;;;0.35;0.30;;;;;;;-145.82;100.00;61645.16;5055716;28;20103;-76
2023/01/26 10:55:19;;;;;;;0.52;0.40;;;;;;;-145.82;100.00;61645.16;5054157;28;20036;-77
2023/01/26 10:58:41;;;;;;;0.40;0.30;;;;;;;-145.82;100.00;61645.16;5054267;28;20145;-76
2023/01/26 11:01:27;;;;;;;0.28;0.28;;;;;;;-145.82;100.00;61645.16;5066877;28;20048;-77
2023/01/26 11:04:14;;;;;;;0.32;0.30;;;;;;;-145.82;100.00;61645.16;5056259;28;20136;-76
2023/01/26 11:07:24;;;;;;;0.22;0.22;;;;;;;-145.82;100.00;61645.16;5057672;28;20706;-76
2023/01/26 11:10:31;;;;;;;0.30;0.30;;;;;;;-145.82;100.00;61645.16;5048158;28;20767;-76
2023/01/26 11:13:20;;;;;;;0.22;0.22;;;;;;;-145.82;100.00;61645.16;5055045;28;20313;-75
2023/01/26 11:16:24;;;;;;;0.30;0.30;;;;;;;-145.82;100.00;61645.16;5056730;28;20208;-76
2023/01/26 11:19:23;;;;;;;0.20;0.20;;;;;;;-145.82;100.00;61645.16;5067798;28;20048;-77
2023/01/26 11:22:19;;;;;;;0.20;0.20;;;;;;;-145.82;100.00;61645.16;5054821;28;20029;-76
2023/01/26 11:25:34;;;;;;;0.28;0.28;;;;;;;-145.82;100.00;61645.16;5055088;28;20428;-74
2023/01/26 11:28:45;;;;;;;0.20;0.20;;;;;;;-145.82;100.00;61645.16;5054310;28;20037;-76
2023/01/26 11:31:49;;;;;;;0.20;0.20;;;;;;;-145.82;100.00;61645.16;5055567;28;20544;-75
2023/01/26 11:34:44;;;;;;;0.20;0.20;;;;;;;-145.82;100.00;61645.16;5054751;28;20423;-75
2023/01/26 11:37:35;;;;;;;0.20;0.20;;;;;;;-145.82;100.00;61645.16;5053448;28;20162;-76
2023/01/26 11:40:40;;;;;;;0.30;0.30;;;;;;;-145.82;100.00;61645.16;5056360;28;20044;-76
2023/01/26 11:43:46;;;;;;;0.20;0.20;;;;;;;-145.82;100.00;61645.16;5046122;28;20458;-76
2023/01/26 11:47:11;;;;;;;0.20;0.20;;;;;;;-145.82;100.00;61645.16;5053762;28;20036;-75
2023/01/26 11:50:17;;;;;;;0.20;0.20;;;;;;;-145.82;100.00;61645.16;5055445;28;20101;-76
2023/01/26 11:53:19;;;;;;;0.28;0.22;;;;;;;-145.82;100.00;61645.16;5056182;28;20485;-75
2023/01/26 11:56:43;;;;;;;0.20;0.20;;;;;;;-145.82;100.00;61645.16;5057296;28;20382;-76
2023/01/26 11:59:52;;;;;;;0.20;0.20;;;;;;;-145.82;100.00;61645.16;5056722;28;20393;-76
2023/01/26 12:02:40;;;;;;;0.20;0.20;;;;;;;-145.82;100.00;61645.16;5052526;28;20139;-76
2023/01/26 12:05:36;;;;;;;0.20;0.20;;;;;;;-145.82;100.00;61645.16;5057479;28;20428;-76
2023/01/26 12:08:29;;;;;;;0.20;0.20;;;;;;;-145.82;100.00;61645.16;5053828;28;20284;-75
2023/01/26 12:11:42;;;;;;;0.10;0.10;;;;;;;-145.82;100.00;61645.16;5055180;28;20385;-76
2023/01/26 12:14:48;;;;;;;0.20;0.20;;;;;;;-145.82;100.00;61645.16;5028051;28;20239;-75
2023/01/26 12:17:57;;;;;;;0.20;0.20;;;;;;;-145.82;100.00;61645.16;5054996;28;20040;-75
2023/01/26 12:20:51;;;;;;;0.20;0.20;;;;;;;-145.82;100.00;61645.16;5041075;28;20118;-74
2023/01/26 12:23:54;;;;;;;0.20;0.20;;;;;;;-145.82;100.00;61645.16;5052737;28;20050;-75
2023/01/26 12:26:46;;;;;;;0.20;0.20;;;;;;;-145.82;100.00;61645.16;5051436;28;20139;-75
2023/01/26 12:29:53;;;;;;;0.20;0.20;;;;;;;-145.82;100.00;61645.16;5053275;28;20094;-75
2023/01/26 12:32:39;;;;;;;0.20;0.20;;;;;;;-145.82;100.00;61645.16;5050593;28;20036;-74
2023/01/26 12:35:48;;;;;;;0.20;0.20;;;;;;;-145.82;100.00;61645.16;5057794;28;20688;-75
2023/01/26 12:38:48;;;;;;;0.20;0.20;;;;;;;-145.82;100.00;61645.16;5052192;28;20041;-75
2023/01/26 12:41:51;;;;;;;0.20;0.20;;;;;;;-145.82;100.00;61645.16;5057680;28;20070;-76
2023/01/26 12:44:41;;;;;;;0.20;0.20;;;;;;;-145.82;100.00;61645.16;5054587;28;20445;-75
2023/01/26 12:47:33;;;;;;;0.20;0.20;;;;;;;-145.82;100.00;61645.16;5052879;28;20044;-76
2023/01/26 12:50:43;;;;;;;0.20;0.20;;;;;;;-145.82;100.00;61645.16;5055565;28;20044;-75
2023/01/26 12:53:47;;;;;;;0.20;0.20;;;;;;;-145.82;100.00;61645.16;5054264;28;20475;-75
2023/01/26 12:56:45;;;;;;;0.20;0.20;;;;;;;-145.82;100.00;61645.16;5054940;28;20270;-75
2023/01/26 12:59:37;;;;;;;0.20;0.20;;;;;;;-145.82;100.00;61645.16;5053029;28;20041;-75
2023/01/26 13:02:30;;;;;;;0.30;0.30;;;;;;;-145.82;100.00;61645.16;5053035;28;20652;-75
2023/01/26 13:05:24;;;;;;;0.20;0.20;;;;;;;-145.82;100.00;61645.16;5055299;28;20071;-76
2023/01/26 13:08:28;;;;;;;0.20;0.20;;;;;;;-145.82;100.00;61645.16;5052514;28;20036;-75
2023/01/26 13:11:42;;;;;;;0.20;0.20;;;;;;;-145.82;100.00;61645.16;5054612;28;20052;-75
2023/01/26 13:14:37;;;;;;;0.57;0.40;;;;;;;-145.82;100.00;61645.16;5040976;28;20089;-76
2023/01/26 13:17:24;;;;;;;0.50;0.35;;;;;;;-145.82;100.00;61645.16;5054637;28;20040;-75
2023/01/26 13:20:39;;;;;;;0.20;0.20;;;;;;;-145.82;100.00;61645.16;5054227;28;20632;-75
2023/01/26 13:23:38;;;;;;;0.45;0.32;;;;;;;-145.82;100.00;61645.16;5050465;28;20071;-76
2023/01/26 13:26:30;;;;;;;0.22;0.22;;;;;;;-145.82;100.00;61645.16;5052369;28;20157;-76
2023/01/26 13:29:31;;;;;;;0.32;0.30;;;;;;;-145.82;100.00;61645.16;5054972;28;20060;-75
2023/01/26 13:32:17;;;;;;;0.88;0.52;;;;;;;-145.82;100.00;61645.16;5052649;28;20044;-75
2023/01/26 13:35:07;;;;;;;0.65;0.40;;;;;;;-145.82;100.00;61645.16;5065381;28;20048;-76
2023/01/26 13:37:59;;;;;;;0.45;0.38;;;;;;;-145.82;100.00;61645.16;5050433;28;20062;-75
2023/01/26 13:40:49;;;;;;;0.30;0.30;;;;;;;-145.82;100.00;61645.16;5054059;28;20044;-75
2023/01/26 13:43:41;;;;;;;1.10;0.60;;;;;;;-145.82;100.00;61645.16;5051707;28;20558;-76